Grant City, Indiana
Current Conditions -  °F | °C
As of 5:15 AM on Saturday 22 Nov 2014 (Local Time) from KMQJ Reporting Station
Broken Clouds Broken Clouds  
Wind Chill: 25°   Ceiling: 5000
Heat Index: 34°   Visibility: 10mi
Dew Point: 23°   Wind: 13mph
Humidity: 65%   Direction: 180°S
Pressure: 30.22"   Gusts: 18mph
Location:  39.9185°N, 85.5187°W
Report Text: KMQJ 221015Z AUTO 18011G16KT 10SM SCT013 SCT023 BKN050 01/M05 A3022 RMK AO1
Loading
Personal Weather Stations






























Interactive Weather Map New forecast layout! Learn more

10-Day Weather Forecast

Advertisements
Track Severe Weather on mobile